sensor_id;sensor_type;location;lat;lon;timestamp;P1;durP1;ratioP1;P2;durP2;ratioP2
62633;SDS011;48704;50.534;6.442;2023-04-24T00:02:22;2.58;;;1.50;;
62633;SDS011;48704;50.534;6.442;2023-04-24T00:04:48;3.75;;;1.75;;
62633;SDS011;48704;50.534;6.442;2023-04-24T00:07:14;4.25;;;1.65;;
62633;SDS011;48704;50.534;6.442;2023-04-24T00:09:41;2.78;;;1.65;;
62633;SDS011;48704;50.534;6.442;2023-04-24T00:12:07;3.08;;;1.63;;
62633;SDS011;48704;50.534;6.442;2023-04-24T00:14:32;4.00;;;2.10;;
62633;SDS011;48704;50.534;6.442;2023-04-24T00:16:58;3.95;;;2.08;;
62633;SDS011;48704;50.534;6.442;2023-04-24T00:19:23;3.40;;;1.90;;
62633;SDS011;48704;50.534;6.442;2023-04-24T00:21:48;4.60;;;2.70;;
62633;SDS011;48704;50.534;6.442;2023-04-24T00:24:17;4.15;;;2.53;;
62633;SDS011;48704;50.534;6.442;2023-04-24T00:26:43;4.22;;;2.25;;
62633;SDS011;48704;50.534;6.442;2023-04-24T00:29:09;4.30;;;2.35;;
62633;SDS011;48704;50.534;6.442;2023-04-24T00:31:34;6.90;;;3.15;;
62633;SDS011;48704;50.534;6.442;2023-04-24T00:34:00;5.28;;;2.55;;
62633;SDS011;48704;50.534;6.442;2023-04-24T00:36:27;6.20;;;2.42;;
62633;SDS011;48704;50.534;6.442;2023-04-24T00:38:52;6.68;;;2.63;;
62633;SDS011;48704;50.534;6.442;2023-04-24T00:41:18;5.78;;;2.65;;
62633;SDS011;48704;50.534;6.442;2023-04-24T00:43:44;5.45;;;2.75;;
62633;SDS011;48704;50.534;6.442;2023-04-24T00:46:09;5.10;;;2.38;;
62633;SDS011;48704;50.534;6.442;2023-04-24T00:48:36;5.97;;;2.55;;
62633;SDS011;48704;50.534;6.442;2023-04-24T00:51:03;6.40;;;2.10;;
62633;SDS011;48704;50.534;6.442;2023-04-24T00:53:29;4.90;;;2.58;;
62633;SDS011;48704;50.534;6.442;2023-04-24T00:55:54;4.80;;;2.47;;
62633;SDS011;48704;50.534;6.442;2023-04-24T00:58:20;5.18;;;2.53;;
62633;SDS011;48704;50.534;6.442;2023-04-24T01:00:45;6.40;;;3.35;;
62633;SDS011;48704;50.534;6.442;2023-04-24T01:03:12;8.32;;;5.05;;
62633;SDS011;48704;50.534;6.442;2023-04-24T01:05:39;6.88;;;3.95;;
62633;SDS011;48704;50.534;6.442;2023-04-24T01:08:04;8.77;;;4.47;;
62633;SDS011;48704;50.534;6.442;2023-04-24T01:10:29;12.38;;;4.60;;
62633;SDS011;48704;50.534;6.442;2023-04-24T01:12:57;9.85;;;4.75;;
62633;SDS011;48704;50.534;6.442;2023-04-24T01:15:23;8.77;;;4.22;;
62633;SDS011;48704;50.534;6.442;2023-04-24T01:17:48;8.52;;;4.00;;
62633;SDS011;48704;50.534;6.442;2023-04-24T01:20:13;10.85;;;5.65;;
62633;SDS011;48704;50.534;6.442;2023-04-24T01:22:39;11.70;;;4.85;;
62633;SDS011;48704;50.534;6.442;2023-04-24T01:25:05;8.18;;;4.20;;
62633;SDS011;48704;50.534;6.442;2023-04-24T01:27:31;7.57;;;3.50;;
62633;SDS011;48704;50.534;6.442;2023-04-24T01:29:56;7.55;;;4.00;;
62633;SDS011;48704;50.534;6.442;2023-04-24T01:32:22;8.10;;;3.53;;
62633;SDS011;48704;50.534;6.442;2023-04-24T01:34:48;14.00;;;5.32;;
62633;SDS011;48704;50.534;6.442;2023-04-24T01:37:14;9.77;;;4.53;;
62633;SDS011;48704;50.534;6.442;2023-04-24T01:39:40;10.35;;;5.40;;
62633;SDS011;48704;50.534;6.442;2023-04-24T01:42:05;7.30;;;4.35;;
62633;SDS011;48704;50.534;6.442;2023-04-24T01:44:32;10.00;;;5.20;;
62633;SDS011;48704;50.534;6.442;2023-04-24T01:46:58;10.55;;;5.50;;
62633;SDS011;48704;50.534;6.442;2023-04-24T01:49:26;9.40;;;5.22;;
62633;SDS011;48704;50.534;6.442;2023-04-24T01:51:51;11.07;;;5.28;;
62633;SDS011;48704;50.534;6.442;2023-04-24T01:54:16;11.60;;;5.38;;
62633;SDS011;48704;50.534;6.442;2023-04-24T01:56:42;9.25;;;5.20;;
62633;SDS011;48704;50.534;6.442;2023-04-24T01:59:11;10.02;;;4.85;;
62633;SDS011;48704;50.534;6.442;2023-04-24T02:01:37;12.07;;;6.38;;
62633;SDS011;48704;50.534;6.442;2023-04-24T02:04:04;14.45;;;6.40;;
62633;SDS011;48704;50.534;6.442;2023-04-24T02:06:30;10.68;;;5.93;;
62633;SDS011;48704;50.534;6.442;2023-04-24T02:08:56;12.48;;;6.28;;
62633;SDS011;48704;50.534;6.442;2023-04-24T02:11:23;11.30;;;5.97;;
62633;SDS011;48704;50.534;6.442;2023-04-24T02:13:49;13.00;;;6.47;;
62633;SDS011;48704;50.534;6.442;2023-04-24T02:16:15;11.13;;;5.95;;
62633;SDS011;48704;50.534;6.442;2023-04-24T02:18:40;11.57;;;5.85;;
62633;SDS011;48704;50.534;6.442;2023-04-24T02:21:06;10.15;;;6.53;;
62633;SDS011;48704;50.534;6.442;2023-04-24T02:23:31;12.20;;;6.20;;
62633;SDS011;48704;50.534;6.442;2023-04-24T02:25:56;8.60;;;5.32;;
62633;SDS011;48704;50.534;6.442;2023-04-24T02:28:22;10.90;;;5.88;;
62633;SDS011;48704;50.534;6.442;2023-04-24T02:30:47;10.73;;;5.95;;
62633;SDS011;48704;50.534;6.442;2023-04-24T02:33:12;14.70;;;6.15;;
62633;SDS011;48704;50.534;6.442;2023-04-24T02:35:38;10.35;;;6.50;;
62633;SDS011;48704;50.534;6.442;2023-04-24T02:38:03;12.55;;;6.68;;
62633;SDS011;48704;50.534;6.442;2023-04-24T02:40:29;12.05;;;6.57;;
62633;SDS011;48704;50.534;6.442;2023-04-24T02:42:55;14.57;;;6.38;;
62633;SDS011;48704;50.534;6.442;2023-04-24T02:45:20;12.07;;;6.03;;
62633;SDS011;48704;50.534;6.442;2023-04-24T02:47:45;11.38;;;5.78;;
62633;SDS011;48704;50.534;6.442;2023-04-24T02:50:11;12.48;;;6.47;;
62633;SDS011;48704;50.534;6.442;2023-04-24T02:52:36;12.50;;;6.18;;
62633;SDS011;48704;50.534;6.442;2023-04-24T02:55:01;14.35;;;6.20;;
62633;SDS011;48704;50.534;6.442;2023-04-24T02:57:27;14.90;;;6.40;;
62633;SDS011;48704;50.534;6.442;2023-04-24T02:59:52;13.18;;;7.07;;
62633;SDS011;48704;50.534;6.442;2023-04-24T03:02:17;14.50;;;6.32;;
62633;SDS011;48704;50.534;6.442;2023-04-24T03:04:42;12.48;;;6.97;;
62633;SDS011;48704;50.534;6.442;2023-04-24T03:07:08;13.20;;;6.88;;
62633;SDS011;48704;50.534;6.442;2023-04-24T03:09:33;12.82;;;6.53;;
62633;SDS011;48704;50.534;6.442;2023-04-24T03:11:58;12.02;;;7.25;;
62633;SDS011;48704;50.534;6.442;2023-04-24T03:14:24;14.95;;;8.27;;
62633;SDS011;48704;50.534;6.442;2023-04-24T03:16:49;12.65;;;6.80;;
62633;SDS011;48704;50.534;6.442;2023-04-24T03:19:15;13.52;;;7.05;;
62633;SDS011;48704;50.534;6.442;2023-04-24T03:21:40;17.75;;;6.88;;
62633;SDS011;48704;50.534;6.442;2023-04-24T03:24:09;14.98;;;7.28;;
62633;SDS011;48704;50.534;6.442;2023-04-24T03:26:34;12.75;;;8.32;;
62633;SDS011;48704;50.534;6.442;2023-04-24T03:29:00;14.07;;;7.65;;
62633;SDS011;48704;50.534;6.442;2023-04-24T03:31:25;12.98;;;8.10;;
62633;SDS011;48704;50.534;6.442;2023-04-24T03:33:50;15.65;;;7.90;;
62633;SDS011;48704;50.534;6.442;2023-04-24T03:36:16;15.90;;;8.25;;
62633;SDS011;48704;50.534;6.442;2023-04-24T03:38:42;16.20;;;7.72;;
62633;SDS011;48704;50.534;6.442;2023-04-24T03:41:07;16.35;;;7.93;;
62633;SDS011;48704;50.534;6.442;2023-04-24T03:43:32;12.93;;;7.78;;
62633;SDS011;48704;50.534;6.442;2023-04-24T03:45:59;25.83;;;8.35;;
62633;SDS011;48704;50.534;6.442;2023-04-24T03:48:24;12.10;;;7.28;;
62633;SDS011;48704;50.534;6.442;2023-04-24T03:50:50;14.73;;;6.82;;
62633;SDS011;48704;50.534;6.442;2023-04-24T03:53:15;17.20;;;8.13;;
62633;SDS011;48704;50.534;6.442;2023-04-24T03:55:40;14.60;;;9.07;;
62633;SDS011;48704;50.534;6.442;2023-04-24T03:58:05;15.75;;;7.80;;
62633;SDS011;48704;50.534;6.442;2023-04-24T04:00:31;15.20;;;7.43;;
62633;SDS011;48704;50.534;6.442;2023-04-24T04:02:57;14.82;;;7.43;;
62633;SDS011;48704;50.534;6.442;2023-04-24T04:05:22;16.70;;;7.22;;
62633;SDS011;48704;50.534;6.442;2023-04-24T04:07:47;14.32;;;7.57;;
62633;SDS011;48704;50.534;6.442;2023-04-24T04:10:12;15.63;;;7.78;;
62633;SDS011;48704;50.534;6.442;2023-04-24T04:12:38;17.80;;;7.30;;
62633;SDS011;48704;50.534;6.442;2023-04-24T04:15:03;12.93;;;6.82;;
62633;SDS011;48704;50.534;6.442;2023-04-24T04:17:30;13.05;;;7.50;;
62633;SDS011;48704;50.534;6.442;2023-04-24T04:19:55;15.93;;;7.88;;
62633;SDS011;48704;50.534;6.442;2023-04-24T04:22:21;12.23;;;6.63;;
62633;SDS011;48704;50.534;6.442;2023-04-24T04:24:46;14.57;;;7.07;;
62633;SDS011;48704;50.534;6.442;2023-04-24T04:27:11;13.07;;;7.55;;
62633;SDS011;48704;50.534;6.442;2023-04-24T04:29:37;14.75;;;6.93;;
62633;SDS011;48704;50.534;6.442;2023-04-24T04:32:03;15.82;;;7.43;;
62633;SDS011;48704;50.534;6.442;2023-04-24T04:34:28;15.98;;;7.82;;
62633;SDS011;48704;50.534;6.442;2023-04-24T04:36:54;17.05;;;7.00;;
62633;SDS011;48704;50.534;6.442;2023-04-24T04:39:20;14.90;;;7.28;;
62633;SDS011;48704;50.534;6.442;2023-04-24T04:41:45;15.05;;;6.97;;
62633;SDS011;48704;50.534;6.442;2023-04-24T04:44:13;14.25;;;6.43;;
62633;SDS011;48704;50.534;6.442;2023-04-24T04:46:39;10.13;;;6.25;;
62633;SDS011;48704;50.534;6.442;2023-04-24T04:49:04;16.73;;;7.20;;
62633;SDS011;48704;50.534;6.442;2023-04-24T04:51:29;10.18;;;6.13;;
62633;SDS011;48704;50.534;6.442;2023-04-24T04:53:56;15.23;;;5.88;;
62633;SDS011;48704;50.534;6.442;2023-04-24T04:56:21;12.45;;;7.22;;
62633;SDS011;48704;50.534;6.442;2023-04-24T04:58:47;10.77;;;6.47;;
62633;SDS011;48704;50.534;6.442;2023-04-24T05:01:12;10.70;;;5.63;;
62633;SDS011;48704;50.534;6.442;2023-04-24T05:03:37;11.18;;;6.15;;
62633;SDS011;48704;50.534;6.442;2023-04-24T05:06:03;11.30;;;5.20;;
62633;SDS011;48704;50.534;6.442;2023-04-24T05:08:28;11.30;;;5.97;;
62633;SDS011;48704;50.534;6.442;2023-04-24T05:10:54;16.83;;;5.63;;
62633;SDS011;48704;50.534;6.442;2023-04-24T05:13:20;12.80;;;7.15;;
62633;SDS011;48704;50.534;6.442;2023-04-24T05:15:45;11.93;;;6.32;;
62633;SDS011;48704;50.534;6.442;2023-04-24T05:18:10;13.40;;;6.53;;
62633;SDS011;48704;50.534;6.442;2023-04-24T05:20:36;14.35;;;6.85;;
62633;SDS011;48704;50.534;6.442;2023-04-24T05:23:01;14.38;;;6.97;;
62633;SDS011;48704;50.534;6.442;2023-04-24T05:25:26;8.80;;;5.20;;
62633;SDS011;48704;50.534;6.442;2023-04-24T05:27:52;13.00;;;6.95;;
62633;SDS011;48704;50.534;6.442;2023-04-24T05:30:18;12.77;;;6.35;;
62633;SDS011;48704;50.534;6.442;2023-04-24T05:32:43;9.98;;;5.80;;
62633;SDS011;48704;50.534;6.442;2023-04-24T05:35:09;11.65;;;5.88;;
62633;SDS011;48704;50.534;6.442;2023-04-24T05:37:35;14.05;;;6.78;;
62633;SDS011;48704;50.534;6.442;2023-04-24T05:40:00;8.65;;;5.25;;
62633;SDS011;48704;50.534;6.442;2023-04-24T05:42:25;11.25;;;5.63;;
62633;SDS011;48704;50.534;6.442;2023-04-24T05:44:50;8.68;;;4.63;;
62633;SDS011;48704;50.534;6.442;2023-04-24T05:47:16;9.88;;;5.78;;
62633;SDS011;48704;50.534;6.442;2023-04-24T05:49:41;8.43;;;4.80;;
62633;SDS011;48704;50.534;6.442;2023-04-24T05:52:06;8.07;;;4.43;;
62633;SDS011;48704;50.534;6.442;2023-04-24T05:54:33;8.73;;;4.82;;
62633;SDS011;48704;50.534;6.442;2023-04-24T05:56:59;6.68;;;4.10;;
62633;SDS011;48704;50.534;6.442;2023-04-24T05:59:24;10.80;;;4.25;;
62633;SDS011;48704;50.534;6.442;2023-04-24T06:01:49;8.32;;;4.72;;
62633;SDS011;48704;50.534;6.442;2023-04-24T06:04:15;5.97;;;2.95;;
62633;SDS011;48704;50.534;6.442;2023-04-24T06:06:40;7.50;;;3.80;;
62633;SDS011;48704;50.534;6.442;2023-04-24T06:09:06;4.78;;;2.97;;
62633;SDS011;48704;50.534;6.442;2023-04-24T06:11:31;6.25;;;3.30;;
62633;SDS011;48704;50.534;6.442;2023-04-24T06:13:57;5.93;;;2.85;;
62633;SDS011;48704;50.534;6.442;2023-04-24T06:16:22;6.40;;;2.65;;
62633;SDS011;48704;50.534;6.442;2023-04-24T06:18:47;5.57;;;3.03;;
62633;SDS011;48704;50.534;6.442;2023-04-24T06:21:13;4.50;;;2.40;;
62633;SDS011;48704;50.534;6.442;2023-04-24T06:23:38;5.25;;;2.80;;
62633;SDS011;48704;50.534;6.442;2023-04-24T06:26:03;7.13;;;3.47;;
62633;SDS011;48704;50.534;6.442;2023-04-24T06:28:29;4.68;;;2.10;;
62633;SDS011;48704;50.534;6.442;2023-04-24T06:30:54;5.68;;;2.45;;
62633;SDS011;48704;50.534;6.442;2023-04-24T06:33:19;5.45;;;2.58;;
62633;SDS011;48704;50.534;6.442;2023-04-24T06:35:45;6.18;;;2.83;;
62633;SDS011;48704;50.534;6.442;2023-04-24T06:38:10;5.30;;;2.40;;
62633;SDS011;48704;50.534;6.442;2023-04-24T06:40:35;4.03;;;2.22;;
62633;SDS011;48704;50.534;6.442;2023-04-24T06:43:00;3.88;;;2.13;;
62633;SDS011;48704;50.534;6.442;2023-04-24T06:45:27;4.30;;;1.45;;
62633;SDS011;48704;50.534;6.442;2023-04-24T06:47:53;3.83;;;1.73;;
62633;SDS011;48704;50.534;6.442;2023-04-24T06:50:18;4.50;;;1.85;;
62633;SDS011;48704;50.534;6.442;2023-04-24T06:52:44;4.03;;;2.10;;
62633;SDS011;48704;50.534;6.442;2023-04-24T06:55:09;5.18;;;2.25;;
62633;SDS011;48704;50.534;6.442;2023-04-24T06:57:36;4.00;;;1.80;;
62633;SDS011;48704;50.534;6.442;2023-04-24T07:00:01;3.97;;;2.03;;
62633;SDS011;48704;50.534;6.442;2023-04-24T07:02:28;2.38;;;1.25;;
62633;SDS011;48704;50.534;6.442;2023-04-24T07:04:53;3.08;;;1.80;;
62633;SDS011;48704;50.534;6.442;2023-04-24T07:07:18;2.42;;;1.27;;
62633;SDS011;48704;50.534;6.442;2023-04-24T07:09:44;3.15;;;1.77;;
62633;SDS011;48704;50.534;6.442;2023-04-24T07:12:10;3.47;;;1.50;;
62633;SDS011;48704;50.534;6.442;2023-04-24T07:14:36;2.38;;;1.20;;
62633;SDS011;48704;50.534;6.442;2023-04-24T07:17:02;1.98;;;0.98;;
62633;SDS011;48704;50.534;6.442;2023-04-24T07:19:28;0.90;;;0.60;;
62633;SDS011;48704;50.534;6.442;2023-04-24T07:21:53;1.38;;;0.73;;
62633;SDS011;48704;50.534;6.442;2023-04-24T07:24:20;1.05;;;0.40;;
62633;SDS011;48704;50.534;6.442;2023-04-24T07:26:45;1.73;;;0.73;;
62633;SDS011;48704;50.534;6.442;2023-04-24T07:29:11;1.40;;;0.60;;
62633;SDS011;48704;50.534;6.442;2023-04-24T07:31:38;0.47;;;0.30;;
62633;SDS011;48704;50.534;6.442;2023-04-24T07:34:03;0.88;;;0.40;;
62633;SDS011;48704;50.534;6.442;2023-04-24T07:36:29;0.88;;;0.52;;
62633;SDS011;48704;50.534;6.442;2023-04-24T07:38:54;0.75;;;0.50;;
62633;SDS011;48704;50.534;6.442;2023-04-24T07:41:20;1.13;;;0.70;;
62633;SDS011;48704;50.534;6.442;2023-04-24T07:43:46;1.13;;;0.60;;
62633;SDS011;48704;50.534;6.442;2023-04-24T07:46:11;4.68;;;2.28;;
62633;SDS011;48704;50.534;6.442;2023-04-24T07:48:36;1.98;;;1.05;;
62633;SDS011;48704;50.534;6.442;2023-04-24T07:51:02;2.97;;;0.88;;
62633;SDS011;48704;50.534;6.442;2023-04-24T07:53:27;1.58;;;0.95;;
62633;SDS011;48704;50.534;6.442;2023-04-24T07:55:53;2.67;;;1.33;;
62633;SDS011;48704;50.534;6.442;2023-04-24T07:58:19;2.20;;;1.10;;
62633;SDS011;48704;50.534;6.442;2023-04-24T08:00:45;1.90;;;1.13;;
62633;SDS011;48704;50.534;6.442;2023-04-24T08:03:10;4.20;;;1.88;;
62633;SDS011;48704;50.534;6.442;2023-04-24T08:05:37;4.68;;;2.38;;
62633;SDS011;48704;50.534;6.442;2023-04-24T08:08:02;4.20;;;1.80;;
62633;SDS011;48704;50.534;6.442;2023-04-24T08:10:28;2.55;;;1.00;;
62633;SDS011;48704;50.534;6.442;2023-04-24T08:12:53;1.88;;;1.10;;
62633;SDS011;48704;50.534;6.442;2023-04-24T08:15:19;1.95;;;1.00;;
62633;SDS011;48704;50.534;6.442;2023-04-24T08:17:45;2.50;;;1.48;;
62633;SDS011;48704;50.534;6.442;2023-04-24T08:20:10;2.67;;;1.52;;
62633;SDS011;48704;50.534;6.442;2023-04-24T08:22:40;3.75;;;2.15;;
62633;SDS011;48704;50.534;6.442;2023-04-24T08:25:06;6.15;;;2.10;;
62633;SDS011;48704;50.534;6.442;2023-04-24T08:27:31;5.78;;;1.80;;
62633;SDS011;48704;50.534;6.442;2023-04-24T08:29:57;2.40;;;1.15;;
62633;SDS011;48704;50.534;6.442;2023-04-24T08:32:23;1.30;;;0.85;;
62633;SDS011;48704;50.534;6.442;2023-04-24T08:34:49;2.90;;;1.50;;
62633;SDS011;48704;50.534;6.442;2023-04-24T08:37:14;2.65;;;1.40;;
62633;SDS011;48704;50.534;6.442;2023-04-24T08:39:39;2.70;;;1.50;;
62633;SDS011;48704;50.534;6.442;2023-04-24T08:42:05;2.80;;;0.98;;
62633;SDS011;48704;50.534;6.442;2023-04-24T08:44:33;3.20;;;1.63;;
62633;SDS011;48704;50.534;6.442;2023-04-24T08:47:01;4.22;;;2.30;;
62633;SDS011;48704;50.534;6.442;2023-04-24T08:49:27;4.70;;;2.75;;
62633;SDS011;48704;50.534;6.442;2023-04-24T08:51:53;3.17;;;2.03;;
62633;SDS011;48704;50.534;6.442;2023-04-24T08:54:19;5.88;;;3.25;;
62633;SDS011;48704;50.534;6.442;2023-04-24T08:56:45;8.25;;;4.00;;
62633;SDS011;48704;50.534;6.442;2023-04-24T08:59:13;6.97;;;3.60;;
62633;SDS011;48704;50.534;6.442;2023-04-24T09:01:39;6.78;;;3.22;;
62633;SDS011;48704;50.534;6.442;2023-04-24T09:04:06;6.18;;;3.10;;
62633;SDS011;48704;50.534;6.442;2023-04-24T09:06:35;7.07;;;3.70;;
62633;SDS011;48704;50.534;6.442;2023-04-24T09:09:01;6.47;;;3.03;;
62633;SDS011;48704;50.534;6.442;2023-04-24T09:11:28;4.43;;;2.50;;
62633;SDS011;48704;50.534;6.442;2023-04-24T09:13:55;7.03;;;3.17;;
62633;SDS011;48704;50.534;6.442;2023-04-24T09:16:21;6.70;;;3.50;;
62633;SDS011;48704;50.534;6.442;2023-04-24T09:18:48;6.53;;;3.38;;
62633;SDS011;48704;50.534;6.442;2023-04-24T09:21:14;5.88;;;3.20;;
62633;SDS011;48704;50.534;6.442;2023-04-24T09:23:39;8.02;;;3.20;;
62633;SDS011;48704;50.534;6.442;2023-04-24T09:26:05;8.27;;;4.47;;
62633;SDS011;48704;50.534;6.442;2023-04-24T09:28:37;8.75;;;4.50;;
62633;SDS011;48704;50.534;6.442;2023-04-24T09:33:53;10.40;;;5.35;;
62633;SDS011;48704;50.534;6.442;2023-04-24T09:36:19;7.32;;;3.80;;
62633;SDS011;48704;50.534;6.442;2023-04-24T09:38:52;6.72;;;4.82;;
62633;SDS011;48704;50.534;6.442;2023-04-24T09:41:22;8.15;;;4.13;;
62633;SDS011;48704;50.534;6.442;2023-04-24T09:43:47;11.68;;;5.72;;
62633;SDS011;48704;50.534;6.442;2023-04-24T09:46:12;8.98;;;4.85;;
62633;SDS011;48704;50.534;6.442;2023-04-24T09:48:38;10.27;;;5.95;;
62633;SDS011;48704;50.534;6.442;2023-04-24T09:51:04;7.78;;;4.03;;
62633;SDS011;48704;50.534;6.442;2023-04-24T09:53:36;10.55;;;4.82;;
62633;SDS011;48704;50.534;6.442;2023-04-24T09:56:02;13.23;;;5.25;;
62633;SDS011;48704;50.534;6.442;2023-04-24T09:58:31;7.13;;;4.50;;
62633;SDS011;48704;50.534;6.442;2023-04-24T10:00:57;10.02;;;5.95;;
62633;SDS011;48704;50.534;6.442;2023-04-24T10:03:25;14.40;;;5.75;;
62633;SDS011;48704;50.534;6.442;2023-04-24T10:05:52;13.32;;;6.55;;
62633;SDS011;48704;50.534;6.442;2023-04-24T10:08:18;15.98;;;6.15;;
62633;SDS011;48704;50.534;6.442;2023-04-24T10:10:44;11.73;;;6.95;;
62633;SDS011;48704;50.534;6.442;2023-04-24T10:13:11;11.82;;;5.88;;
62633;SDS011;48704;50.534;6.442;2023-04-24T10:15:38;11.80;;;5.97;;
62633;SDS011;48704;50.534;6.442;2023-04-24T10:18:05;14.90;;;6.82;;
62633;SDS011;48704;50.534;6.442;2023-04-24T10:20:31;11.93;;;4.93;;
62633;SDS011;48704;50.534;6.442;2023-04-24T10:22:57;20.13;;;6.45;;
62633;SDS011;48704;50.534;6.442;2023-04-24T10:25:24;11.35;;;6.43;;
62633;SDS011;48704;50.534;6.442;2023-04-24T10:27:55;22.48;;;9.43;;
62633;SDS011;48704;50.534;6.442;2023-04-24T10:30:25;16.25;;;7.63;;
62633;SDS011;48704;50.534;6.442;2023-04-24T10:32:52;16.50;;;7.95;;
62633;SDS011;48704;50.534;6.442;2023-04-24T10:35:17;17.38;;;8.23;;
62633;SDS011;48704;50.534;6.442;2023-04-24T10:40:25;17.70;;;8.55;;
62633;SDS011;48704;50.534;6.442;2023-04-24T10:42:52;18.10;;;8.82;;
62633;SDS011;48704;50.534;6.442;2023-04-24T10:45:20;15.10;;;7.28;;
62633;SDS011;48704;50.534;6.442;2023-04-24T10:48:01;15.32;;;8.23;;
62633;SDS011;48704;50.534;6.442;2023-04-24T10:50:28;20.23;;;7.03;;
62633;SDS011;48704;50.534;6.442;2023-04-24T10:53:07;14.35;;;7.68;;
62633;SDS011;48704;50.534;6.442;2023-04-24T10:55:44;18.67;;;9.77;;
62633;SDS011;48704;50.534;6.442;2023-04-24T10:58:14;16.75;;;8.60;;
62633;SDS011;48704;50.534;6.442;2023-04-24T11:00:41;24.85;;;9.68;;
62633;SDS011;48704;50.534;6.442;2023-04-24T11:03:25;11.48;;;6.55;;
62633;SDS011;48704;50.534;6.442;2023-04-24T11:08:24;19.50;;;7.95;;
62633;SDS011;48704;50.534;6.442;2023-04-24T11:10:55;16.80;;;7.57;;
62633;SDS011;48704;50.534;6.442;2023-04-24T11:13:23;11.95;;;6.15;;
62633;SDS011;48704;50.534;6.442;2023-04-24T11:18:49;17.20;;;9.38;;
62633;SDS011;48704;50.534;6.442;2023-04-24T11:21:18;17.52;;;8.30;;
62633;SDS011;48704;50.534;6.442;2023-04-24T11:23:44;18.25;;;8.15;;
62633;SDS011;48704;50.534;6.442;2023-04-24T11:26:14;12.57;;;6.18;;
62633;SDS011;48704;50.534;6.442;2023-04-24T11:28:44;15.57;;;7.60;;
62633;SDS011;48704;50.534;6.442;2023-04-24T11:34:09;17.25;;;7.47;;
62633;SDS011;48704;50.534;6.442;2023-04-24T11:36:35;10.95;;;5.10;;
62633;SDS011;48704;50.534;6.442;2023-04-24T11:39:01;13.38;;;6.97;;
62633;SDS011;48704;50.534;6.442;2023-04-24T11:41:27;11.30;;;6.40;;
62633;SDS011;48704;50.534;6.442;2023-04-24T11:43:53;10.73;;;5.15;;
62633;SDS011;48704;50.534;6.442;2023-04-24T11:46:23;14.65;;;6.93;;
62633;SDS011;48704;50.534;6.442;2023-04-24T11:48:48;16.60;;;7.25;;
62633;SDS011;48704;50.534;6.442;2023-04-24T11:51:13;16.42;;;7.97;;
62633;SDS011;48704;50.534;6.442;2023-04-24T11:53:39;14.20;;;5.95;;
62633;SDS011;48704;50.534;6.442;2023-04-24T11:56:04;14.23;;;7.25;;
62633;SDS011;48704;50.534;6.442;2023-04-24T11:58:37;12.55;;;7.20;;
62633;SDS011;48704;50.534;6.442;2023-04-24T12:01:04;14.57;;;8.23;;
62633;SDS011;48704;50.534;6.442;2023-04-24T12:03:29;13.20;;;7.47;;
62633;SDS011;48704;50.534;6.442;2023-04-24T12:06:04;20.02;;;8.43;;
62633;SDS011;48704;50.534;6.442;2023-04-24T12:08:32;14.93;;;8.25;;
62633;SDS011;48704;50.534;6.442;2023-04-24T12:10:58;18.45;;;8.45;;
62633;SDS011;48704;50.534;6.442;2023-04-24T12:13:25;14.27;;;7.60;;
62633;SDS011;48704;50.534;6.442;2023-04-24T12:15:51;15.55;;;6.20;;
62633;SDS011;48704;50.534;6.442;2023-04-24T12:18:16;14.98;;;7.20;;
62633;SDS011;48704;50.534;6.442;2023-04-24T12:20:42;16.60;;;8.40;;
62633;SDS011;48704;50.534;6.442;2023-04-24T12:23:07;18.83;;;7.38;;
62633;SDS011;48704;50.534;6.442;2023-04-24T12:25:32;14.70;;;7.80;;
62633;SDS011;48704;50.534;6.442;2023-04-24T12:30:30;11.73;;;6.75;;
62633;SDS011;48704;50.534;6.442;2023-04-24T12:32:58;13.70;;;7.55;;
62633;SDS011;48704;50.534;6.442;2023-04-24T12:35:25;12.05;;;6.35;;
62633;SDS011;48704;50.534;6.442;2023-04-24T12:37:52;13.40;;;7.82;;
62633;SDS011;48704;50.534;6.442;2023-04-24T12:40:18;13.77;;;7.72;;
62633;SDS011;48704;50.534;6.442;2023-04-24T12:42:46;15.13;;;7.63;;
62633;SDS011;48704;50.534;6.442;2023-04-24T12:45:14;13.48;;;6.75;;
62633;SDS011;48704;50.534;6.442;2023-04-24T12:47:40;11.50;;;6.25;;
62633;SDS011;48704;50.534;6.442;2023-04-24T12:50:07;10.27;;;5.80;;
62633;SDS011;48704;50.534;6.442;2023-04-24T12:52:33;11.60;;;5.80;;
62633;SDS011;48704;50.534;6.442;2023-04-24T12:54:59;18.20;;;7.30;;
62633;SDS011;48704;50.534;6.442;2023-04-24T12:57:26;9.13;;;5.82;;
62633;SDS011;48704;50.534;6.442;2023-04-24T12:59:56;16.77;;;7.85;;
62633;SDS011;48704;50.534;6.442;2023-04-24T13:02:23;19.02;;;8.20;;
62633;SDS011;48704;50.534;6.442;2023-04-24T13:04:49;13.35;;;7.68;;
62633;SDS011;48704;50.534;6.442;2023-04-24T13:07:16;16.05;;;8.45;;
62633;SDS011;48704;50.534;6.442;2023-04-24T13:09:42;14.57;;;6.72;;
62633;SDS011;48704;50.534;6.442;2023-04-24T13:12:08;15.60;;;8.23;;
62633;SDS011;48704;50.534;6.442;2023-04-24T13:14:34;14.05;;;8.05;;
62633;SDS011;48704;50.534;6.442;2023-04-24T13:17:00;14.93;;;8.13;;
62633;SDS011;48704;50.534;6.442;2023-04-24T13:19:25;15.23;;;8.13;;
62633;SDS011;48704;50.534;6.442;2023-04-24T13:21:51;15.70;;;7.85;;
62633;SDS011;48704;50.534;6.442;2023-04-24T13:24:17;14.68;;;8.27;;
62633;SDS011;48704;50.534;6.442;2023-04-24T13:26:42;16.48;;;7.68;;
62633;SDS011;48704;50.534;6.442;2023-04-24T13:29:08;15.18;;;8.23;;
62633;SDS011;48704;50.534;6.442;2023-04-24T13:31:33;13.05;;;7.28;;
62633;SDS011;48704;50.534;6.442;2023-04-24T13:33:58;17.75;;;9.05;;
62633;SDS011;48704;50.534;6.442;2023-04-24T13:36:24;15.32;;;7.95;;
62633;SDS011;48704;50.534;6.442;2023-04-24T13:38:49;17.90;;;8.45;;
62633;SDS011;48704;50.534;6.442;2023-04-24T13:41:14;15.45;;;8.60;;
62633;SDS011;48704;50.534;6.442;2023-04-24T13:43:39;16.15;;;8.32;;
62633;SDS011;48704;50.534;6.442;2023-04-24T13:46:07;16.42;;;8.10;;
62633;SDS011;48704;50.534;6.442;2023-04-24T13:48:32;17.80;;;8.60;;
62633;SDS011;48704;50.534;6.442;2023-04-24T13:50:57;13.30;;;7.30;;
62633;SDS011;48704;50.534;6.442;2023-04-24T13:53:23;11.95;;;5.90;;
62633;SDS011;48704;50.534;6.442;2023-04-24T13:55:48;15.75;;;8.85;;
62633;SDS011;48704;50.534;6.442;2023-04-24T13:58:13;15.45;;;8.07;;
62633;SDS011;48704;50.534;6.442;2023-04-24T14:00:39;22.75;;;10.73;;
62633;SDS011;48704;50.534;6.442;2023-04-24T14:03:04;14.57;;;7.20;;
62633;SDS011;48704;50.534;6.442;2023-04-24T14:05:30;10.32;;;5.72;;
62633;SDS011;48704;50.534;6.442;2023-04-24T14:07:55;16.35;;;8.05;;
62633;SDS011;48704;50.534;6.442;2023-04-24T14:10:20;15.60;;;9.15;;
62633;SDS011;48704;50.534;6.442;2023-04-24T14:12:46;17.75;;;9.57;;
62633;SDS011;48704;50.534;6.442;2023-04-24T14:15:11;15.95;;;8.23;;
62633;SDS011;48704;50.534;6.442;2023-04-24T14:17:38;17.27;;;8.27;;
62633;SDS011;48704;50.534;6.442;2023-04-24T14:20:04;21.02;;;9.82;;
62633;SDS011;48704;50.534;6.442;2023-04-24T14:22:29;21.00;;;10.38;;
62633;SDS011;48704;50.534;6.442;2023-04-24T14:24:55;13.93;;;7.28;;
62633;SDS011;48704;50.534;6.442;2023-04-24T14:27:20;16.05;;;7.95;;
62633;SDS011;48704;50.534;6.442;2023-04-24T14:29:46;16.25;;;8.32;;
62633;SDS011;48704;50.534;6.442;2023-04-24T14:32:11;17.05;;;8.23;;
62633;SDS011;48704;50.534;6.442;2023-04-24T14:34:36;15.48;;;7.93;;
62633;SDS011;48704;50.534;6.442;2023-04-24T14:37:01;17.63;;;8.60;;
62633;SDS011;48704;50.534;6.442;2023-04-24T14:39:27;16.83;;;8.43;;
62633;SDS011;48704;50.534;6.442;2023-04-24T14:41:53;15.90;;;8.05;;
62633;SDS011;48704;50.534;6.442;2023-04-24T14:44:18;15.73;;;8.63;;
62633;SDS011;48704;50.534;6.442;2023-04-24T14:46:44;14.43;;;8.38;;
62633;SDS011;48704;50.534;6.442;2023-04-24T14:49:09;15.32;;;8.48;;
62633;SDS011;48704;50.534;6.442;2023-04-24T14:51:35;16.88;;;7.45;;